createdAt,value
2022-11-30T00:00:22.479Z,1.50
2022-11-30T00:05:44.420Z,1.45
2022-11-30T00:11:11.325Z,1.20
2022-11-30T00:16:33.164Z,1.20
2022-11-30T00:21:54.997Z,1.19
2022-11-30T00:27:16.828Z,1.36
2022-11-30T00:32:38.599Z,1.25
2022-11-30T00:38:02.246Z,1.24
2022-11-30T00:43:24.078Z,1.41
2022-11-30T00:48:45.946Z,1.44
2022-11-30T00:54:07.732Z,1.31
2022-11-30T00:59:29.504Z,1.14
2022-11-30T01:04:51.312Z,1.17
2022-11-30T01:10:13.117Z,1.13
2022-11-30T01:15:40.697Z,1.35
2022-11-30T01:21:06.051Z,1.46
2022-11-30T01:26:27.827Z,1.38
2022-11-30T01:31:49.594Z,1.41
2022-11-30T01:37:11.399Z,1.52
2022-11-30T01:42:33.474Z,1.49
2022-11-30T01:47:57.289Z,1.13
2022-11-30T01:53:19.317Z,1.22
2022-11-30T01:58:41.121Z,1.31
2022-11-30T02:04:09.838Z,1.41
2022-11-30T02:09:39.760Z,1.46
2022-11-30T02:15:09.425Z,1.50
2022-11-30T02:20:47.726Z,1.67
2022-11-30T02:26:24.786Z,1.70
2022-11-30T02:32:14.228Z,1.53
2022-11-30T02:37:38.526Z,1.50
2022-11-30T02:43:03.346Z,1.58
2022-11-30T02:54:04.583Z,1.46
2022-11-30T02:59:26.758Z,1.28
2022-11-30T03:04:48.819Z,1.36
2022-11-30T03:10:11.009Z,1.11
2022-11-30T03:15:32.907Z,1.27
2022-11-30T03:20:54.771Z,0.96
2022-11-30T03:26:16.546Z,1.12
2022-11-30T03:31:38.339Z,1.35
2022-11-30T03:37:00.146Z,1.42
2022-11-30T03:42:21.901Z,1.37
2022-11-30T03:47:43.695Z,1.20
2022-11-30T03:53:05.488Z,1.08
2022-11-30T03:58:28.429Z,1.31
2022-11-30T04:03:51.649Z,1.39
2022-11-30T04:09:13.580Z,1.43
2022-11-30T04:14:35.428Z,1.63
2022-11-30T04:19:57.234Z,1.76
2022-11-30T04:25:19.056Z,1.62
2022-11-30T04:30:41.307Z,1.47
2022-11-30T04:36:05.787Z,1.41
2022-11-30T04:41:27.582Z,1.46
2022-11-30T04:46:49.398Z,1.42
2022-11-30T04:52:11.232Z,1.30
2022-11-30T04:57:33.034Z,1.38
2022-11-30T05:02:56.389Z,1.22
2022-11-30T05:08:18.173Z,1.38
2022-11-30T05:13:39.954Z,1.27
2022-11-30T05:19:01.810Z,1.08
2022-11-30T05:24:23.571Z,1.32
2022-11-30T05:29:45.508Z,1.42
2022-11-30T05:35:07.634Z,1.19
2022-11-30T05:40:29.462Z,1.43
2022-11-30T05:45:51.230Z,1.23
2022-11-30T05:51:16.078Z,1.22
2022-11-30T05:56:37.924Z,1.02
2022-11-30T06:01:59.829Z,1.30
2022-11-30T06:07:21.705Z,1.41
2022-11-30T06:12:43.542Z,1.07
2022-11-30T06:18:06.394Z,1.23
2022-11-30T06:23:28.571Z,0.91
2022-11-30T06:28:50.433Z,1.22
2022-11-30T06:34:12.206Z,1.38
2022-11-30T06:40:04.210Z,1.31
2022-11-30T06:45:15.828Z,1.41
2022-11-30T06:50:37.686Z,1.36
2022-11-30T06:55:59.494Z,1.35
2022-11-30T07:01:21.277Z,1.19
2022-11-30T07:06:43.138Z,1.17
2022-11-30T07:12:05.352Z,1.21
2022-11-30T07:17:27.217Z,1.27
2022-11-30T07:22:48.988Z,1.30
2022-11-30T07:28:10.781Z,1.38
2022-11-30T07:33:32.569Z,1.17
2022-11-30T07:38:54.492Z,1.29
2022-11-30T07:44:16.317Z,1.11
2022-11-30T07:49:38.109Z,1.12
2022-11-30T07:54:59.925Z,0.92
2022-11-30T08:00:21.704Z,1.21
2022-11-30T08:05:43.490Z,1.53
2022-11-30T08:11:07.104Z,1.12
2022-11-30T08:16:30.356Z,1.31
2022-11-30T08:21:52.222Z,1.44
2022-11-30T08:27:14.006Z,1.10
2022-11-30T08:32:35.926Z,1.36
2022-11-30T08:37:57.766Z,1.36
2022-11-30T08:43:19.610Z,1.11
2022-11-30T08:48:41.444Z,1.56
2022-11-30T08:54:03.486Z,1.23
2022-11-30T08:59:25.399Z,0.90
2022-11-30T09:04:48.353Z,1.24
2022-11-30T09:10:10.938Z,1.26
2022-11-30T09:15:32.849Z,1.48
2022-11-30T09:21:01.475Z,1.63
2022-11-30T09:26:23.611Z,1.63
2022-11-30T09:31:45.520Z,1.73
2022-11-30T09:37:07.363Z,1.82
2022-11-30T09:42:32.036Z,1.48
2022-11-30T09:48:02.582Z,1.61
2022-11-30T09:53:57.915Z,1.51
2022-11-30T09:59:22.669Z,1.56
2022-11-30T10:04:45.553Z,1.63
2022-11-30T10:10:37.198Z,1.45
2022-11-30T10:16:18.015Z,1.65
2022-11-30T10:21:58.827Z,2.05
2022-11-30T10:27:53.483Z,2.15
2022-11-30T10:33:23.644Z,2.19
2022-11-30T10:38:50.371Z,2.24
2022-11-30T10:44:17.570Z,2.30
2022-11-30T10:49:45.419Z,2.22
2022-11-30T10:55:15.364Z,2.29
2022-11-30T11:00:37.186Z,2.13
2022-11-30T11:06:06.880Z,1.98
2022-11-30T11:11:32.669Z,2.07
2022-11-30T11:17:25.758Z,2.01
2022-11-30T11:22:47.783Z,2.20
2022-11-30T11:28:16.048Z,2.30
2022-11-30T11:33:50.910Z,2.21
2022-11-30T11:39:25.994Z,2.09
2022-11-30T11:44:53.372Z,2.26
2022-11-30T11:50:57.718Z,2.37
2022-11-30T11:56:14.122Z,2.06
2022-11-30T12:02:13.230Z,2.07
2022-11-30T12:07:58.162Z,2.24
2022-11-30T12:13:22.810Z,1.94
2022-11-30T12:18:56.818Z,2.20
2022-11-30T12:24:34.939Z,2.10
2022-11-30T12:29:56.672Z,2.29
2022-11-30T12:35:41.538Z,2.03
2022-11-30T12:41:19.215Z,2.10
2022-11-30T12:47:24.435Z,2.00
2022-11-30T12:53:12.424Z,1.63
2022-11-30T12:59:01.173Z,1.77
2022-11-30T13:04:45.261Z,1.83
2022-11-30T13:10:22.649Z,1.91
2022-11-30T13:15:45.962Z,1.97
2022-11-30T13:21:33.255Z,1.96
2022-11-30T13:27:00.433Z,1.73
2022-11-30T13:32:56.205Z,2.15
2022-11-30T13:38:35.885Z,2.30
2022-11-30T13:43:55.836Z,1.78
2022-11-30T13:49:20.266Z,1.99
2022-11-30T13:54:43.819Z,1.90
2022-11-30T14:00:45.708Z,1.98
2022-11-30T14:06:55.628Z,1.96
2022-11-30T14:12:32.711Z,2.15
2022-11-30T14:17:57.368Z,2.25
2022-11-30T14:23:22.247Z,2.20
2022-11-30T14:29:02.567Z,2.12
2022-11-30T14:34:36.473Z,2.23
2022-11-30T14:40:03.949Z,2.12
2022-11-30T14:45:27.053Z,2.04
2022-11-30T14:50:55.652Z,2.13
2022-11-30T14:56:43.960Z,1.99
2022-11-30T15:02:17.882Z,2.08
2022-11-30T15:07:42.131Z,2.05
2022-11-30T15:13:05.066Z,1.87
2022-11-30T15:18:26.855Z,1.90
2022-11-30T15:23:51.493Z,1.83
2022-11-30T15:29:20.404Z,1.88
2022-11-30T15:34:53.509Z,2.12
2022-11-30T15:40:33.493Z,2.26
2022-11-30T15:45:58.313Z,2.37
2022-11-30T15:51:26.641Z,2.39
2022-11-30T15:56:57.335Z,2.33
2022-11-30T16:02:36.365Z,2.45
2022-11-30T16:07:59.416Z,2.34
2022-11-30T16:13:22.635Z,2.15
2022-11-30T16:18:44.405Z,2.05
2022-11-30T16:24:06.524Z,2.07
2022-11-30T16:29:28.322Z,2.05
2022-11-30T16:34:50.142Z,2.02
2022-11-30T16:40:12.766Z,2.12
2022-11-30T16:45:36.821Z,1.82
2022-11-30T16:50:58.778Z,2.09
2022-11-30T16:56:20.714Z,1.95
2022-11-30T17:01:46.936Z,1.96
2022-11-30T17:07:09.277Z,1.91
2022-11-30T17:12:31.193Z,2.04
2022-11-30T17:17:53.006Z,1.90
2022-11-30T17:23:14.922Z,2.06
2022-11-30T17:28:36.731Z,2.09
2022-11-30T17:33:58.617Z,2.06
2022-11-30T17:39:20.447Z,2.15
2022-11-30T17:44:42.470Z,2.08
2022-11-30T17:50:05.358Z,1.75
2022-11-30T17:55:27.158Z,1.94
2022-11-30T18:00:50.739Z,1.89
2022-11-30T18:06:13.434Z,1.94
2022-11-30T18:11:35.308Z,2.01
2022-11-30T18:16:57.150Z,2.24
2022-11-30T18:22:19.484Z,2.17
2022-11-30T18:27:41.522Z,2.14
2022-11-30T18:33:03.360Z,2.39
2022-11-30T18:38:25.790Z,2.47
2022-11-30T18:43:47.648Z,2.32
2022-11-30T18:49:09.623Z,2.50
2022-11-30T18:54:31.428Z,2.19
2022-11-30T18:59:54.057Z,2.22
2022-11-30T19:05:16.587Z,2.29
2022-11-30T19:10:39.904Z,2.24
2022-11-30T19:16:05.728Z,2.56
2022-11-30T19:21:27.834Z,2.35
2022-11-30T19:26:49.697Z,2.24
2022-11-30T19:32:11.556Z,2.42
2022-11-30T19:37:33.477Z,2.48
2022-11-30T19:42:55.729Z,2.40
2022-11-30T19:48:17.510Z,2.39
2022-11-30T19:53:41.817Z,2.37
2022-11-30T19:59:05.689Z,2.43
2022-11-30T20:04:27.984Z,2.50
2022-11-30T20:09:49.989Z,2.52
2022-11-30T20:15:12.336Z,2.45
2022-11-30T20:20:34.379Z,2.37
2022-11-30T20:26:05.407Z,2.36
2022-11-30T20:31:28.970Z,2.32
2022-11-30T20:36:51.444Z,2.08
2022-11-30T20:42:13.753Z,2.17
2022-11-30T20:47:35.648Z,2.29
2022-11-30T20:52:57.427Z,2.16
2022-11-30T20:58:19.252Z,2.27
2022-11-30T21:03:41.782Z,2.19
2022-11-30T21:09:04.339Z,2.17
2022-11-30T21:14:26.329Z,2.07
2022-11-30T21:19:48.170Z,2.08
2022-11-30T21:25:10.012Z,2.19
2022-11-30T21:30:31.828Z,2.25
2022-11-30T21:35:53.658Z,2.17
2022-11-30T21:41:15.503Z,2.15
2022-11-30T21:46:37.604Z,2.25
2022-11-30T21:51:59.441Z,2.20
2022-11-30T21:57:21.700Z,2.07
2022-11-30T22:02:43.494Z,2.16
2022-11-30T22:08:05.407Z,2.39
2022-11-30T22:13:27.837Z,2.26
2022-11-30T22:18:53.848Z,2.28
2022-11-30T22:24:15.725Z,2.26
2022-11-30T22:29:37.612Z,1.98
2022-11-30T22:34:59.415Z,2.14
2022-11-30T22:40:21.200Z,2.09
2022-11-30T22:45:43.003Z,2.05
2022-11-30T22:51:10.184Z,2.12
2022-11-30T22:56:36.917Z,2.14
2022-11-30T23:01:58.814Z,2.14
2022-11-30T23:07:20.686Z,2.17
2022-11-30T23:12:59.058Z,2.19
2022-11-30T23:18:21.822Z,1.98
2022-11-30T23:23:44.502Z,2.07
2022-11-30T23:29:10.058Z,2.13
2022-11-30T23:34:31.864Z,1.92
2022-11-30T23:39:53.662Z,2.01
2022-11-30T23:45:15.461Z,2.05
2022-11-30T23:50:37.250Z,1.95
2022-11-30T23:56:04.225Z,1.90
